Accueil
METAR-TAF:

METAR-TAF

Aéroports :

Aéroport d'Épinal-Mirecourt

Épinal, France

latitude: 48-19-31N, longitude: 6-04-00E, altitude: 330 m

Observation

Le bulletin a été fait il y a 12 minutes, à 10:00 UTC
Vent 6 kt de nord-est, variant entre nord et est/nord-est
Température 12°C
Humidité 82%
Pression 1029 hPa
Visibilité: 7000 m
Ciel couvert à une hauteur de 700 ft

METAR: LFSG 201000Z AUTO 04006KT 360V060 7000 OVC007 12/09 Q1029

Heure: 12:12 (10:12 UTC)


TAF: absent

Observations et prévisions météorologiques de plus de 4000 aéroports (messages METAR et TAF).

Les stations disponibles sont représentées par des disques jaunes et rouges sur la carte.

Passer la souris dessus pour voir le nom de la station.

Cliquer dessus pour voir les observations et prévisions météorologiques.

Pour changer de carte: cliquez sur les boutons verts avec une croix noire pour zoomer, sur le bouton vert avec un tiret pour effectuer un zoom arrière, ou sur les flèches vertes pour les cartes adjacentes.


METAR-TAF: